createdAt,value
2017-12-14T00:02:25.203Z,6.30
2017-12-14T00:04:53.495Z,6.40
2017-12-14T00:07:21.019Z,6.40
2017-12-14T00:09:48.573Z,6.40
2017-12-14T00:12:16.096Z,6.40
2017-12-14T00:14:43.630Z,6.40
2017-12-14T00:17:11.163Z,6.40
2017-12-14T00:19:38.697Z,6.40
2017-12-14T00:22:06.234Z,6.30
2017-12-14T00:24:33.293Z,6.30
2017-12-14T00:27:00.812Z,6.30
2017-12-14T00:29:28.346Z,6.30
2017-12-14T00:31:55.884Z,6.30
2017-12-14T00:34:23.402Z,6.30
2017-12-14T00:36:50.919Z,6.40
2017-12-14T00:39:18.469Z,6.50
2017-12-14T00:41:46.006Z,6.50
2017-12-14T00:44:13.590Z,6.50
2017-12-14T00:46:41.146Z,6.50
2017-12-14T00:49:08.667Z,6.50
2017-12-14T00:51:36.183Z,6.50
2017-12-14T00:54:04.501Z,6.50
2017-12-14T00:56:32.016Z,6.50
2017-12-14T00:59:00.295Z,6.60
2017-12-14T01:01:28.613Z,6.60
2017-12-14T01:03:56.142Z,6.60
2017-12-14T01:06:23.659Z,6.60
2017-12-14T01:08:51.206Z,6.50
2017-12-14T01:11:18.963Z,6.50
2017-12-14T01:13:46.676Z,6.40
2017-12-14T01:16:15.396Z,6.40
2017-12-14T01:18:42.964Z,6.40
2017-12-14T01:21:10.497Z,6.40
2017-12-14T01:23:38.032Z,6.30
2017-12-14T01:26:06.325Z,6.30
2017-12-14T01:28:33.854Z,6.30
2017-12-14T01:31:01.392Z,6.20
2017-12-14T01:33:28.912Z,6.20
2017-12-14T01:35:56.428Z,6.20
2017-12-14T01:38:24.260Z,6.20
2017-12-14T01:40:51.776Z,6.20
2017-12-14T01:43:20.060Z,6.20
2017-12-14T01:45:47.600Z,6.10
2017-12-14T01:48:15.897Z,6.10
2017-12-14T01:50:43.430Z,6.10
2017-12-14T01:53:11.727Z,6.10
2017-12-14T01:55:39.534Z,6.10
2017-12-14T01:58:07.080Z,6.10
2017-12-14T02:00:34.620Z,6.10
2017-12-14T02:03:02.136Z,6.10
2017-12-14T02:05:29.671Z,6.10
2017-12-14T02:07:57.976Z,6.10
2017-12-14T02:10:25.809Z,6.10
2017-12-14T02:12:53.327Z,6.10
2017-12-14T02:15:21.019Z,6.10
2017-12-14T02:17:48.553Z,6.10
2017-12-14T02:20:16.086Z,6.20
2017-12-14T02:22:43.664Z,6.10
2017-12-14T02:25:11.187Z,6.10
2017-12-14T02:27:38.726Z,6.10
2017-12-14T02:30:06.274Z,6.10
2017-12-14T02:32:33.811Z,6.10
2017-12-14T02:35:01.333Z,6.10
2017-12-14T02:37:28.881Z,6.10
2017-12-14T02:39:56.402Z,6.10
2017-12-14T02:42:23.964Z,6.00
2017-12-14T02:44:51.581Z,6.00
2017-12-14T02:47:19.088Z,6.00
2017-12-14T02:49:46.611Z,6.00
2017-12-14T02:52:14.412Z,5.90
2017-12-14T02:54:41.933Z,5.90
2017-12-14T02:57:09.448Z,5.90
2017-12-14T02:59:36.989Z,5.90
2017-12-14T03:02:04.513Z,5.90
2017-12-14T03:04:32.054Z,5.80
2017-12-14T03:07:00.356Z,5.80
2017-12-14T03:09:27.886Z,5.80
2017-12-14T03:11:56.169Z,5.80
2017-12-14T03:14:24.487Z,5.70
2017-12-14T03:16:52.000Z,5.70
2017-12-14T03:19:20.279Z,5.70
2017-12-14T03:21:48.597Z,5.80
2017-12-14T03:24:16.118Z,5.80
2017-12-14T03:26:43.635Z,5.70
2017-12-14T03:29:11.164Z,5.70
2017-12-14T03:31:38.695Z,5.70
2017-12-14T03:34:06.234Z,5.70
2017-12-14T03:36:33.786Z,5.70
2017-12-14T03:39:01.317Z,5.60
2017-12-14T03:41:29.599Z,5.60
2017-12-14T03:43:57.914Z,5.60
2017-12-14T03:46:26.200Z,5.70
2017-12-14T03:48:54.830Z,5.70
2017-12-14T03:51:22.393Z,5.70
2017-12-14T03:53:49.916Z,5.80
2017-12-14T03:56:17.441Z,5.80
2017-12-14T03:58:45.757Z,5.90
2017-12-14T04:01:13.272Z,5.90
2017-12-14T04:03:40.802Z,6.10
2017-12-14T04:06:08.356Z,6.10
2017-12-14T04:08:35.886Z,6.10
2017-12-14T04:11:03.405Z,6.20
2017-12-14T04:13:30.961Z,6.20
2017-12-14T04:15:58.490Z,6.30
2017-12-14T04:18:26.003Z,6.50
2017-12-14T04:20:54.317Z,6.60
2017-12-14T04:23:21.836Z,6.60
2017-12-14T04:25:50.119Z,6.50
2017-12-14T04:28:17.656Z,6.50
2017-12-14T04:30:45.939Z,6.30
2017-12-14T04:33:14.227Z,5.90
2017-12-14T04:35:42.606Z,5.90
2017-12-14T04:38:10.413Z,5.00
2017-12-14T04:40:37.952Z,4.40
2017-12-14T04:43:06.084Z,4.20
2017-12-14T04:45:34.659Z,4.00
2017-12-14T04:48:02.486Z,4.00
2017-12-14T04:50:30.355Z,4.00
2017-12-14T04:52:57.898Z,4.00
2017-12-14T04:55:25.425Z,4.00
2017-12-14T04:57:53.724Z,3.90
2017-12-14T05:00:21.250Z,3.90
2017-12-14T05:02:49.542Z,3.90
2017-12-14T05:05:17.835Z,3.90
2017-12-14T05:07:45.348Z,3.90
2017-12-14T05:10:12.877Z,3.90
2017-12-14T05:12:40.412Z,3.90
2017-12-14T05:15:07.955Z,3.90
2017-12-14T05:17:35.471Z,3.90
2017-12-14T05:20:03.011Z,3.90
2017-12-14T05:22:30.527Z,4.00
2017-12-14T05:24:58.811Z,4.20
2017-12-14T05:27:26.358Z,4.10
2017-12-14T05:29:54.649Z,4.10
2017-12-14T05:32:22.451Z,4.10
2017-12-14T05:34:49.997Z,4.10
2017-12-14T05:37:17.525Z,4.10
2017-12-14T05:39:45.053Z,4.20
2017-12-14T05:42:13.709Z,4.10
2017-12-14T05:44:41.220Z,4.10
2017-12-14T05:47:09.513Z,4.10
2017-12-14T05:49:37.062Z,4.10
2017-12-14T05:52:04.605Z,4.00
2017-12-14T05:54:32.897Z,3.90
2017-12-14T05:57:00.445Z,3.90
2017-12-14T05:59:28.737Z,4.00
2017-12-14T06:01:56.255Z,3.90
2017-12-14T06:04:24.149Z,4.00
2017-12-14T06:06:52.428Z,4.00
2017-12-14T06:09:20.707Z,4.00
2017-12-14T06:11:48.246Z,4.00
2017-12-14T06:14:16.577Z,3.90
2017-12-14T06:16:44.091Z,4.00
2017-12-14T06:19:12.400Z,3.90
2017-12-14T06:21:39.918Z,3.80
2017-12-14T06:24:08.219Z,3.90
2017-12-14T06:26:35.769Z,3.90
2017-12-14T06:29:03.294Z,3.80
2017-12-14T06:31:31.591Z,3.80
2017-12-14T06:33:59.910Z,3.70
2017-12-14T06:36:27.445Z,3.80
2017-12-14T06:38:54.960Z,3.70
2017-12-14T06:41:22.533Z,3.60
2017-12-14T06:43:50.815Z,3.60
2017-12-14T06:46:19.117Z,3.60
2017-12-14T06:48:46.706Z,3.60
2017-12-14T06:51:14.223Z,3.50
2017-12-14T06:53:41.749Z,3.40
2017-12-14T06:56:09.300Z,3.40
2017-12-14T06:58:38.334Z,3.40
2017-12-14T07:01:06.617Z,3.40
2017-12-14T07:03:34.182Z,3.40
2017-12-14T07:06:01.715Z,3.30
2017-12-14T07:08:30.004Z,3.30
2017-12-14T07:10:58.317Z,3.30
2017-12-14T07:13:26.667Z,3.30
2017-12-14T07:15:54.188Z,3.30
2017-12-14T07:18:22.019Z,3.40
2017-12-14T07:20:49.550Z,3.40
2017-12-14T07:23:17.077Z,3.40
2017-12-14T07:25:44.630Z,3.40
2017-12-14T07:28:12.151Z,3.40
2017-12-14T07:30:39.668Z,3.50
2017-12-14T07:33:07.972Z,3.60
2017-12-14T07:35:35.563Z,3.60
2017-12-14T07:38:03.093Z,3.70
2017-12-14T07:40:30.630Z,3.80
2017-12-14T07:43:18.040Z,3.90
2017-12-14T07:46:07.076Z,4.00
2017-12-14T07:48:34.924Z,4.00
2017-12-14T07:51:02.465Z,4.10
2017-12-14T07:53:30.006Z,4.20
2017-12-14T07:55:57.527Z,4.30
2017-12-14T07:58:25.044Z,4.30
2017-12-14T08:00:52.591Z,4.40
2017-12-14T08:03:20.111Z,4.40
2017-12-14T08:05:48.395Z,4.50
2017-12-14T08:08:16.720Z,4.50
2017-12-14T08:10:45.022Z,4.50
2017-12-14T08:13:12.873Z,4.50
2017-12-14T08:15:41.249Z,4.60
2017-12-14T08:18:08.768Z,4.60
2017-12-14T08:20:36.305Z,4.70
2017-12-14T08:23:04.631Z,4.80
2017-12-14T08:25:32.150Z,4.80
2017-12-14T08:28:00.432Z,4.80
2017-12-14T08:30:28.763Z,4.80
2017-12-14T08:32:56.294Z,4.80
2017-12-14T08:35:23.820Z,4.90
2017-12-14T08:37:52.134Z,4.90
2017-12-14T08:40:19.664Z,4.90
2017-12-14T08:42:47.193Z,4.90
2017-12-14T08:45:14.751Z,4.80
2017-12-14T08:47:42.275Z,4.90
2017-12-14T08:50:09.809Z,4.90
2017-12-14T08:52:37.352Z,5.00
2017-12-14T08:55:05.645Z,5.10
2017-12-14T08:57:33.158Z,5.00
2017-12-14T09:00:00.714Z,5.10
2017-12-14T09:02:28.241Z,5.20
2017-12-14T09:04:55.759Z,5.30
2017-12-14T09:07:24.090Z,5.70
2017-12-14T09:09:51.626Z,5.70
2017-12-14T09:12:19.158Z,5.80
2017-12-14T09:14:46.713Z,6.10
2017-12-14T09:17:15.015Z,6.30
2017-12-14T09:19:42.536Z,6.30
2017-12-14T09:22:10.858Z,6.60
2017-12-14T09:24:38.418Z,6.60
2017-12-14T09:27:05.940Z,6.90
2017-12-14T09:29:34.265Z,7.20
2017-12-14T09:32:01.793Z,7.20
2017-12-14T09:34:29.322Z,7.10
2017-12-14T09:36:57.643Z,6.50
2017-12-14T09:39:25.164Z,6.50
2017-12-14T09:41:53.461Z,6.50
2017-12-14T09:44:20.996Z,6.50
2017-12-14T09:46:49.289Z,6.30
2017-12-14T09:49:16.823Z,6.30
2017-12-14T09:51:44.373Z,6.40
2017-12-14T09:54:11.895Z,6.50
2017-12-14T09:56:39.426Z,6.90
2017-12-14T09:59:06.978Z,7.10
2017-12-14T10:01:34.518Z,7.10
2017-12-14T10:04:02.826Z,7.10
2017-12-14T10:06:30.386Z,7.10
2017-12-14T10:08:57.913Z,7.70
2017-12-14T10:11:26.207Z,8.40
2017-12-14T10:13:54.508Z,8.60
2017-12-14T10:16:22.024Z,8.60
2017-12-14T10:18:50.318Z,9.50
2017-12-14T10:21:18.619Z,9.50
2017-12-14T10:23:46.131Z,9.50
2017-12-14T10:26:13.652Z,9.40
2017-12-14T10:28:41.212Z,9.50
2017-12-14T10:31:08.755Z,10.10
2017-12-14T10:33:36.538Z,10.10
2017-12-14T10:36:04.407Z,10.30
2017-12-14T10:38:31.937Z,10.20
2017-12-14T10:40:59.452Z,9.70
2017-12-14T10:43:27.002Z,9.50
2017-12-14T10:45:54.517Z,9.60
2017-12-14T10:48:22.041Z,9.20
2017-12-14T10:50:50.712Z,8.20
2017-12-14T10:53:18.230Z,8.20
2017-12-14T10:55:45.758Z,8.10
2017-12-14T11:00:53.018Z,8.70
2017-12-14T11:03:20.556Z,9.50
2017-12-14T11:05:48.846Z,8.90
2017-12-14T11:08:16.363Z,8.90
2017-12-14T11:10:43.897Z,9.20
2017-12-14T11:13:12.185Z,9.60
2017-12-14T11:15:40.464Z,9.00
2017-12-14T11:18:07.996Z,9.00
2017-12-14T11:20:35.529Z,9.00
2017-12-14T11:23:03.040Z,9.50
2017-12-14T11:25:30.842Z,9.80
2017-12-14T11:27:58.352Z,9.90
2017-12-14T11:30:26.650Z,10.00
2017-12-14T11:32:54.435Z,10.00
2017-12-14T11:35:21.962Z,9.80
2017-12-14T11:37:49.501Z,9.70
2017-12-14T11:40:17.819Z,9.10
2017-12-14T11:42:45.336Z,9.10
2017-12-14T11:45:12.875Z,8.90
2017-12-14T11:47:40.414Z,9.10
2017-12-14T11:50:07.936Z,9.00
2017-12-14T11:52:35.466Z,9.10
2017-12-14T11:55:03.763Z,8.70
2017-12-14T11:57:31.294Z,8.70
2017-12-14T11:59:58.812Z,8.60
2017-12-14T12:02:26.351Z,8.30
2017-12-14T12:04:53.878Z,8.20
2017-12-14T12:07:22.160Z,8.30
2017-12-14T12:09:50.477Z,8.40
2017-12-14T12:12:17.995Z,8.40
2017-12-14T12:14:46.274Z,8.20
2017-12-14T12:17:14.589Z,7.80
2017-12-14T12:19:42.106Z,7.80
2017-12-14T12:22:10.391Z,7.70
2017-12-14T12:24:38.238Z,7.70
2017-12-14T12:27:05.735Z,7.70
2017-12-14T12:29:33.270Z,8.30
2017-12-14T12:32:01.590Z,9.20
2017-12-14T12:34:29.129Z,9.10
2017-12-14T12:36:56.681Z,9.30
2017-12-14T12:39:24.218Z,9.20
2017-12-14T12:41:52.504Z,8.80
2017-12-14T12:44:20.034Z,8.80
2017-12-14T12:46:48.358Z,7.90
2017-12-14T12:49:15.872Z,7.90
2017-12-14T12:51:43.398Z,7.90
2017-12-14T12:54:10.939Z,7.50
2017-12-14T12:56:38.455Z,7.30
2017-12-14T12:59:06.743Z,7.30
2017-12-14T13:01:35.081Z,7.20
2017-12-14T13:04:02.600Z,7.10
2017-12-14T13:06:30.115Z,7.10
2017-12-14T13:08:57.673Z,7.00
2017-12-14T13:11:25.207Z,7.00
2017-12-14T13:13:52.748Z,6.90
2017-12-14T13:16:20.309Z,6.90
2017-12-14T13:18:47.847Z,6.90
2017-12-14T13:21:15.390Z,6.90
2017-12-14T13:23:42.941Z,7.00
2017-12-14T13:26:11.228Z,7.10
2017-12-14T13:28:38.757Z,7.10
2017-12-14T13:31:06.311Z,7.00
2017-12-14T13:33:33.842Z,7.10
2017-12-14T13:36:01.359Z,7.20
2017-12-14T13:38:29.668Z,7.60
2017-12-14T13:40:57.195Z,7.60
2017-12-14T13:43:25.476Z,7.70
2017-12-14T13:45:53.015Z,7.60
2017-12-14T13:48:21.300Z,7.70
2017-12-14T13:50:49.579Z,7.60
2017-12-14T13:53:17.879Z,7.50
2017-12-14T13:55:45.392Z,7.50
2017-12-14T13:58:12.908Z,7.40
2017-12-14T14:00:40.447Z,7.40
2017-12-14T14:03:08.011Z,7.30
2017-12-14T14:05:35.603Z,7.40
2017-12-14T14:08:03.201Z,7.30
2017-12-14T14:10:30.744Z,7.30
2017-12-14T14:12:58.272Z,7.40
2017-12-14T14:15:25.848Z,7.30
2017-12-14T14:17:53.424Z,7.30
2017-12-14T14:20:21.708Z,7.20
2017-12-14T14:22:50.019Z,7.10
2017-12-14T14:25:17.556Z,7.10
2017-12-14T14:27:45.843Z,6.90
2017-12-14T14:30:13.383Z,6.90
2017-12-14T14:32:41.677Z,6.80
2017-12-14T14:35:09.196Z,6.80
2017-12-14T14:37:36.842Z,6.70
2017-12-14T14:40:05.204Z,6.60
2017-12-14T14:42:33.554Z,6.50
2017-12-14T14:45:01.100Z,6.60
2017-12-14T14:47:29.393Z,6.40
2017-12-14T14:49:56.915Z,6.50
2017-12-14T14:52:24.495Z,6.50
2017-12-14T14:54:52.776Z,6.40
2017-12-14T14:57:20.307Z,6.30
2017-12-14T14:59:47.879Z,6.40
2017-12-14T15:02:16.179Z,6.40
2017-12-14T15:04:43.835Z,6.40
2017-12-14T15:07:11.375Z,6.40
2017-12-14T15:09:39.660Z,6.30
2017-12-14T15:12:07.968Z,6.30
2017-12-14T15:14:35.536Z,6.30
2017-12-14T15:17:03.055Z,6.30
2017-12-14T15:19:31.336Z,6.20
2017-12-14T15:21:58.883Z,6.20
2017-12-14T15:24:27.172Z,6.10
2017-12-14T15:26:54.760Z,6.10
2017-12-14T15:29:22.875Z,6.10
2017-12-14T15:31:50.400Z,6.00
2017-12-14T15:34:17.963Z,6.00
2017-12-14T15:36:45.499Z,6.00
2017-12-14T15:39:13.020Z,5.90
2017-12-14T15:41:41.306Z,5.90
2017-12-14T15:44:09.612Z,5.80
2017-12-14T15:46:37.176Z,5.80
2017-12-14T15:49:04.691Z,5.70
2017-12-14T15:51:33.000Z,5.70
2017-12-14T15:54:00.767Z,5.70
2017-12-14T15:56:28.303Z,5.70
2017-12-14T15:58:56.892Z,5.80
2017-12-14T16:01:25.075Z,5.80
2017-12-14T16:03:53.781Z,5.70
2017-12-14T16:06:21.360Z,5.70
2017-12-14T16:08:50.151Z,5.70
2017-12-14T16:11:18.497Z,5.80
2017-12-14T16:13:46.057Z,5.70
2017-12-14T16:16:13.682Z,5.70
2017-12-14T16:18:42.030Z,5.80
2017-12-14T16:21:10.447Z,5.70
2017-12-14T16:23:38.725Z,5.80
2017-12-14T16:26:06.300Z,5.80
2017-12-14T16:28:33.831Z,5.90
2017-12-14T16:31:02.115Z,5.90
2017-12-14T16:33:30.396Z,5.80
2017-12-14T16:35:57.935Z,5.80
2017-12-14T16:38:26.220Z,5.90
2017-12-14T16:40:54.507Z,5.90
2017-12-14T16:43:22.059Z,5.80
2017-12-14T16:45:50.344Z,5.80
2017-12-14T16:48:17.861Z,5.80
2017-12-14T16:50:45.395Z,5.90
2017-12-14T16:53:12.911Z,5.90
2017-12-14T16:55:41.192Z,5.90
2017-12-14T16:58:08.726Z,5.90
2017-12-14T17:00:36.244Z,5.90
2017-12-14T17:03:03.763Z,5.90
2017-12-14T17:05:32.389Z,5.90
2017-12-14T17:07:59.952Z,5.80
2017-12-14T17:10:27.479Z,5.90
2017-12-14T17:12:55.083Z,5.90
2017-12-14T17:15:22.604Z,5.90
2017-12-14T17:17:50.120Z,5.90
2017-12-14T17:20:17.659Z,5.80
2017-12-14T17:22:45.176Z,5.80
2017-12-14T17:25:12.692Z,5.80
2017-12-14T17:27:40.248Z,5.70
2017-12-14T17:30:07.868Z,5.70
2017-12-14T17:32:35.379Z,5.70
2017-12-14T17:35:03.683Z,5.60
2017-12-14T17:37:31.220Z,5.60
2017-12-14T17:39:59.517Z,5.60
2017-12-14T17:42:27.048Z,5.60
2017-12-14T17:44:55.424Z,5.60
2017-12-14T17:47:23.823Z,5.60
2017-12-14T17:49:52.129Z,5.60
2017-12-14T17:52:20.073Z,5.60
2017-12-14T17:54:48.564Z,5.60
2017-12-14T17:57:16.100Z,5.70
2017-12-14T17:59:44.820Z,5.70
2017-12-14T18:02:12.351Z,5.70
2017-12-14T18:04:39.895Z,5.70
2017-12-14T18:07:08.186Z,5.70
2017-12-14T18:09:35.708Z,5.60
2017-12-14T18:12:04.083Z,5.70
2017-12-14T18:14:31.647Z,5.70
2017-12-14T18:16:59.159Z,5.70
2017-12-14T18:19:26.700Z,5.80
2017-12-14T18:21:54.220Z,5.80
2017-12-14T18:24:21.839Z,5.80
2017-12-14T18:26:49.384Z,5.80
2017-12-14T18:29:16.964Z,5.80
2017-12-14T18:31:44.480Z,5.80
2017-12-14T18:34:12.788Z,5.80
2017-12-14T18:36:40.303Z,5.80
2017-12-14T18:39:08.584Z,5.90
2017-12-14T18:41:37.123Z,5.90
2017-12-14T18:44:04.635Z,5.90
2017-12-14T18:46:32.918Z,5.90
2017-12-14T18:49:00.460Z,5.90
2017-12-14T18:51:28.783Z,5.90
2017-12-14T18:53:56.299Z,5.80
2017-12-14T18:56:24.604Z,5.80
2017-12-14T18:58:52.120Z,5.80
2017-12-14T19:01:19.656Z,5.80
2017-12-14T19:03:47.219Z,5.80
2017-12-14T19:06:14.736Z,5.70
2017-12-14T19:08:42.255Z,5.70
2017-12-14T19:11:09.803Z,5.80
2017-12-14T19:13:37.324Z,5.80
2017-12-14T19:16:04.844Z,5.70
2017-12-14T19:18:33.147Z,5.60
2017-12-14T19:21:00.669Z,5.60
2017-12-14T19:23:29.179Z,5.60
2017-12-14T19:25:56.719Z,5.60
2017-12-14T19:28:25.001Z,5.50
2017-12-14T19:30:53.292Z,5.50
2017-12-14T19:33:20.828Z,5.50
2017-12-14T19:35:49.112Z,5.20
2017-12-14T19:38:17.396Z,5.20
2017-12-14T19:40:44.931Z,5.20
2017-12-14T19:43:12.755Z,5.30
2017-12-14T19:45:40.268Z,5.30
2017-12-14T19:48:08.612Z,5.30
2017-12-14T19:50:36.137Z,5.30
2017-12-14T19:53:03.671Z,5.30
2017-12-14T19:55:31.208Z,5.30
2017-12-14T19:57:59.497Z,5.30
2017-12-14T20:00:27.780Z,5.40
2017-12-14T20:02:55.329Z,5.30
2017-12-14T20:05:23.616Z,5.30
2017-12-14T20:07:51.131Z,5.30
2017-12-14T20:10:18.686Z,5.40
2017-12-14T20:12:46.203Z,5.40
2017-12-14T20:15:13.723Z,5.50
2017-12-14T20:17:41.251Z,5.50
2017-12-14T20:20:08.787Z,5.40
2017-12-14T20:22:36.300Z,5.50
2017-12-14T20:25:03.835Z,5.50
2017-12-14T20:27:31.431Z,5.40
2017-12-14T20:29:59.716Z,5.50
2017-12-14T20:32:28.340Z,5.40
2017-12-14T20:34:56.120Z,5.40
2017-12-14T20:37:24.067Z,5.40
2017-12-14T20:39:51.686Z,5.40
2017-12-14T20:42:19.444Z,5.40
2017-12-14T20:44:48.605Z,5.40
2017-12-14T20:47:16.951Z,5.40
2017-12-14T20:49:44.735Z,5.40
2017-12-14T20:52:12.436Z,5.50
2017-12-14T20:54:40.006Z,5.50
2017-12-14T20:57:08.292Z,5.50
2017-12-14T20:59:35.827Z,5.50
2017-12-14T21:02:03.512Z,5.50
2017-12-14T21:04:31.066Z,5.50
2017-12-14T21:06:58.600Z,5.50
2017-12-14T21:09:26.142Z,5.50
2017-12-14T21:11:53.679Z,5.60
2017-12-14T21:14:21.201Z,5.50
2017-12-14T21:16:49.499Z,5.50
2017-12-14T21:19:17.045Z,5.50
2017-12-14T21:21:44.564Z,5.50
2017-12-14T21:24:12.099Z,5.50
2017-12-14T21:26:39.611Z,5.60
2017-12-14T21:29:07.898Z,5.50
2017-12-14T21:31:35.432Z,5.50
2017-12-14T21:34:03.718Z,5.50
2017-12-14T21:36:32.247Z,5.60
2017-12-14T21:39:00.111Z,5.50
2017-12-14T21:41:27.688Z,5.50
2017-12-14T21:43:55.388Z,5.40
2017-12-14T21:46:23.690Z,5.40
2017-12-14T21:48:51.236Z,5.40
2017-12-14T21:51:18.776Z,5.40
2017-12-14T21:53:47.476Z,5.40
2017-12-14T21:56:15.011Z,5.40
2017-12-14T21:58:42.524Z,5.50
2017-12-14T22:01:10.068Z,5.40
2017-12-14T22:03:37.589Z,5.30
2017-12-14T22:06:05.875Z,5.20
2017-12-14T22:08:34.177Z,5.20
2017-12-14T22:11:01.695Z,5.10
2017-12-14T22:13:29.212Z,5.10
2017-12-14T22:15:56.768Z,5.10
2017-12-14T22:18:24.284Z,5.10
2017-12-14T22:20:52.576Z,5.10
2017-12-14T22:23:20.115Z,5.10
2017-12-14T22:25:48.418Z,5.00
2017-12-14T22:28:15.941Z,5.00
2017-12-14T22:30:44.251Z,5.00
2017-12-14T22:33:12.044Z,4.90
2017-12-14T22:35:39.559Z,4.90
2017-12-14T22:38:07.871Z,4.90
2017-12-14T22:40:35.387Z,4.90
2017-12-14T22:43:03.675Z,4.90
2017-12-14T22:45:31.213Z,4.90
2017-12-14T22:47:58.723Z,4.90
2017-12-14T22:50:26.267Z,4.90
2017-12-14T22:52:53.816Z,4.90
2017-12-14T22:55:21.336Z,4.90
2017-12-14T22:57:48.855Z,4.90
2017-12-14T23:00:16.392Z,4.90
2017-12-14T23:02:43.916Z,4.90
2017-12-14T23:05:11.432Z,4.90
2017-12-14T23:07:38.967Z,4.90
2017-12-14T23:10:06.487Z,4.80
2017-12-14T23:12:34.004Z,4.70
2017-12-14T23:15:01.593Z,4.70
2017-12-14T23:17:29.107Z,4.70
2017-12-14T23:19:56.623Z,4.80
2017-12-14T23:22:24.159Z,4.80
2017-12-14T23:24:51.680Z,4.70
2017-12-14T23:27:19.203Z,4.70
2017-12-14T23:29:47.527Z,4.70
2017-12-14T23:32:15.048Z,4.70
2017-12-14T23:34:43.331Z,4.70
2017-12-14T23:37:11.631Z,4.70
2017-12-14T23:39:39.148Z,4.70
2017-12-14T23:42:06.663Z,4.70
2017-12-14T23:44:34.228Z,4.80
2017-12-14T23:47:01.744Z,4.80
2017-12-14T23:49:30.023Z,4.80
2017-12-14T23:51:57.564Z,4.80
2017-12-14T23:54:25.852Z,5.00
2017-12-14T23:56:54.132Z,5.00
2017-12-14T23:59:22.432Z,5.00
